Busch, Arkansas
Current Conditions -  °F | °C
As of 1:57 AM on Sunday 26 Oct 2014 (Local Time) from KROG Reporting Station
Clear Clear  
Wind Chill: 63°   Ceiling: Unl
Heat Index: 63°   Visibility: 10mi
Dew Point: 60°   Wind: 6mph
Humidity: 90%   Direction: 160°SSE
Pressure: 30.03"   Gusts: NA
Location:  36.4778°N, 93.7346°W
Report Text: KROG 260657Z AUTO 16005KT 10SM CLR 17/16 A3003 RMK AO2 SLP157 T01720156
Loading
Personal Weather Stations






























Interactive Weather Map
Tropical Storm Tracking
New forecast layout! Learn more

10-Day Weather Forecast

Advertisements
Track Severe Weather on mobile